sensor_id;sensor_type;location;lat;lon;timestamp;temperature;humidity
796;DHT22;381;48.770;9.188;2022-11-15T00:03:28;10.40;99.90
796;DHT22;381;48.770;9.188;2022-11-15T00:08:49;10.40;99.90
796;DHT22;381;48.770;9.188;2022-11-15T00:14:11;10.40;99.90
796;DHT22;381;48.770;9.188;2022-11-15T00:19:32;10.50;99.90
796;DHT22;381;48.770;9.188;2022-11-15T00:24:52;10.50;99.90
796;DHT22;381;48.770;9.188;2022-11-15T00:30:15;10.50;99.90
796;DHT22;381;48.770;9.188;2022-11-15T00:35:35;10.50;99.90
796;DHT22;381;48.770;9.188;2022-11-15T00:40:56;10.50;99.90
796;DHT22;381;48.770;9.188;2022-11-15T00:46:17;10.50;99.90
796;DHT22;381;48.770;9.188;2022-11-15T00:51:38;10.50;99.90
796;DHT22;381;48.770;9.188;2022-11-15T00:56:58;10.50;99.90
796;DHT22;381;48.770;9.188;2022-11-15T01:02:20;10.50;99.90
796;DHT22;381;48.770;9.188;2022-11-15T01:07:41;10.40;99.90
796;DHT22;381;48.770;9.188;2022-11-15T01:13:02;10.40;99.90
796;DHT22;381;48.770;9.188;2022-11-15T01:18:24;10.40;99.90
796;DHT22;381;48.770;9.188;2022-11-15T01:23:44;10.30;99.90
796;DHT22;381;48.770;9.188;2022-11-15T01:29:05;10.20;99.90
796;DHT22;381;48.770;9.188;2022-11-15T01:34:27;10.20;99.90
796;DHT22;381;48.770;9.188;2022-11-15T01:39:47;10.10;99.90
796;DHT22;381;48.770;9.188;2022-11-15T01:45:12;10.00;99.90
796;DHT22;381;48.770;9.188;2022-11-15T01:50:35;10.00;99.90
796;DHT22;381;48.770;9.188;2022-11-15T01:55:56;9.90;99.90
796;DHT22;381;48.770;9.188;2022-11-15T02:01:16;9.80;99.90
796;DHT22;381;48.770;9.188;2022-11-15T02:06:39;9.80;99.90
796;DHT22;381;48.770;9.188;2022-11-15T02:12:00;9.80;99.90
796;DHT22;381;48.770;9.188;2022-11-15T02:17:31;9.80;99.90
796;DHT22;381;48.770;9.188;2022-11-15T02:23:11;9.90;99.90
796;DHT22;381;48.770;9.188;2022-11-15T02:28:48;9.90;99.90
796;DHT22;381;48.770;9.188;2022-11-15T02:34:19;9.80;99.90
796;DHT22;381;48.770;9.188;2022-11-15T02:39:50;9.80;99.90
796;DHT22;381;48.770;9.188;2022-11-15T02:45:17;9.90;99.90
796;DHT22;381;48.770;9.188;2022-11-15T02:50:41;9.80;99.90
796;DHT22;381;48.770;9.188;2022-11-15T02:56:03;9.80;99.90
796;DHT22;381;48.770;9.188;2022-11-15T03:01:33;9.80;99.90
796;DHT22;381;48.770;9.188;2022-11-15T03:07:05;9.80;99.90
796;DHT22;381;48.770;9.188;2022-11-15T03:12:33;9.90;99.90
796;DHT22;381;48.770;9.188;2022-11-15T03:17:57;9.80;99.90
796;DHT22;381;48.770;9.188;2022-11-15T03:23:20;9.80;99.90
796;DHT22;381;48.770;9.188;2022-11-15T03:28:45;9.80;99.90
796;DHT22;381;48.770;9.188;2022-11-15T03:34:11;9.70;99.90
796;DHT22;381;48.770;9.188;2022-11-15T03:39:34;9.70;99.90
796;DHT22;381;48.770;9.188;2022-11-15T03:45:00;9.60;99.90
796;DHT22;381;48.770;9.188;2022-11-15T03:50:23;9.60;99.90
796;DHT22;381;48.770;9.188;2022-11-15T03:55:46;9.60;99.90
796;DHT22;381;48.770;9.188;2022-11-15T04:01:07;9.70;99.90
796;DHT22;381;48.770;9.188;2022-11-15T04:06:27;9.70;99.90
796;DHT22;381;48.770;9.188;2022-11-15T04:11:49;9.70;99.90
796;DHT22;381;48.770;9.188;2022-11-15T04:17:09;9.70;99.90
796;DHT22;381;48.770;9.188;2022-11-15T04:22:30;9.70;99.90
796;DHT22;381;48.770;9.188;2022-11-15T04:28:10;9.70;99.90
796;DHT22;381;48.770;9.188;2022-11-15T04:33:31;9.70;99.90
796;DHT22;381;48.770;9.188;2022-11-15T04:38:51;9.80;99.90
796;DHT22;381;48.770;9.188;2022-11-15T04:44:13;9.80;99.90
796;DHT22;381;48.770;9.188;2022-11-15T04:49:33;9.80;99.90
796;DHT22;381;48.770;9.188;2022-11-15T04:54:54;9.80;99.90
796;DHT22;381;48.770;9.188;2022-11-15T05:00:17;9.80;99.90
796;DHT22;381;48.770;9.188;2022-11-15T05:05:38;9.70;99.90
796;DHT22;381;48.770;9.188;2022-11-15T05:10:59;9.70;99.90
796;DHT22;381;48.770;9.188;2022-11-15T05:16:21;9.70;99.90
796;DHT22;381;48.770;9.188;2022-11-15T05:21:41;9.60;99.90
796;DHT22;381;48.770;9.188;2022-11-15T05:27:02;9.60;99.90
796;DHT22;381;48.770;9.188;2022-11-15T05:32:24;9.60;99.90
796;DHT22;381;48.770;9.188;2022-11-15T05:37:44;9.60;99.90
796;DHT22;381;48.770;9.188;2022-11-15T05:43:06;9.50;99.90
796;DHT22;381;48.770;9.188;2022-11-15T05:48:27;9.50;99.90
796;DHT22;381;48.770;9.188;2022-11-15T05:53:49;9.60;99.90
796;DHT22;381;48.770;9.188;2022-11-15T05:59:11;9.60;99.90
796;DHT22;381;48.770;9.188;2022-11-15T06:04:33;9.70;99.90
796;DHT22;381;48.770;9.188;2022-11-15T06:09:53;9.70;99.90
796;DHT22;381;48.770;9.188;2022-11-15T06:15:14;9.70;99.90
796;DHT22;381;48.770;9.188;2022-11-15T06:20:36;9.70;99.90
796;DHT22;381;48.770;9.188;2022-11-15T06:25:57;9.80;99.90
796;DHT22;381;48.770;9.188;2022-11-15T06:31:18;9.80;99.90
796;DHT22;381;48.770;9.188;2022-11-15T06:36:40;9.70;99.90
796;DHT22;381;48.770;9.188;2022-11-15T06:42:01;9.70;99.90
796;DHT22;381;48.770;9.188;2022-11-15T06:47:21;9.70;99.90
796;DHT22;381;48.770;9.188;2022-11-15T06:52:43;9.70;99.90
796;DHT22;381;48.770;9.188;2022-11-15T06:58:04;9.80;99.90
796;DHT22;381;48.770;9.188;2022-11-15T07:03:24;9.80;99.90
796;DHT22;381;48.770;9.188;2022-11-15T07:08:49;9.80;99.90
796;DHT22;381;48.770;9.188;2022-11-15T07:14:10;9.80;99.90
796;DHT22;381;48.770;9.188;2022-11-15T07:19:30;9.90;99.90
796;DHT22;381;48.770;9.188;2022-11-15T07:24:52;10.00;99.90
796;DHT22;381;48.770;9.188;2022-11-15T07:30:16;10.10;99.90
796;DHT22;381;48.770;9.188;2022-11-15T07:35:39;10.20;99.90
796;DHT22;381;48.770;9.188;2022-11-15T07:41:06;10.30;99.90
796;DHT22;381;48.770;9.188;2022-11-15T07:46:31;10.50;99.90
796;DHT22;381;48.770;9.188;2022-11-15T07:52:01;10.60;99.90
796;DHT22;381;48.770;9.188;2022-11-15T07:57:23;10.80;99.90
796;DHT22;381;48.770;9.188;2022-11-15T08:02:43;11.00;99.90
796;DHT22;381;48.770;9.188;2022-11-15T08:08:05;11.20;99.90
796;DHT22;381;48.770;9.188;2022-11-15T08:13:27;11.30;99.90
796;DHT22;381;48.770;9.188;2022-11-15T08:18:48;11.50;99.90
796;DHT22;381;48.770;9.188;2022-11-15T08:24:10;11.60;99.90
796;DHT22;381;48.770;9.188;2022-11-15T08:29:32;11.70;99.90
796;DHT22;381;48.770;9.188;2022-11-15T08:34:52;11.70;99.90
796;DHT22;381;48.770;9.188;2022-11-15T08:40:14;11.70;99.90
796;DHT22;381;48.770;9.188;2022-11-15T08:45:36;11.60;99.90
796;DHT22;381;48.770;9.188;2022-11-15T08:51:00;11.60;99.90
796;DHT22;381;48.770;9.188;2022-11-15T08:56:20;11.50;99.90
796;DHT22;381;48.770;9.188;2022-11-15T09:01:42;11.50;99.90
796;DHT22;381;48.770;9.188;2022-11-15T09:07:03;11.50;99.90
796;DHT22;381;48.770;9.188;2022-11-15T09:12:23;11.50;99.90
796;DHT22;381;48.770;9.188;2022-11-15T09:17:46;11.60;99.90
796;DHT22;381;48.770;9.188;2022-11-15T09:23:07;11.80;99.90
796;DHT22;381;48.770;9.188;2022-11-15T09:28:27;11.90;99.90
796;DHT22;381;48.770;9.188;2022-11-15T09:33:50;12.10;99.90
796;DHT22;381;48.770;9.188;2022-11-15T09:39:11;12.30;99.90
796;DHT22;381;48.770;9.188;2022-11-15T09:44:47;12.40;99.90
796;DHT22;381;48.770;9.188;2022-11-15T09:50:17;12.50;99.90
796;DHT22;381;48.770;9.188;2022-11-15T09:55:29;12.40;99.90
796;DHT22;381;48.770;9.188;2022-11-15T10:00:38;12.40;99.90
796;DHT22;381;48.770;9.188;2022-11-15T10:05:45;12.40;99.90
796;DHT22;381;48.770;9.188;2022-11-15T10:10:49;12.50;99.90
796;DHT22;381;48.770;9.188;2022-11-15T10:15:56;12.60;99.90
796;DHT22;381;48.770;9.188;2022-11-15T10:21:13;12.70;99.90
796;DHT22;381;48.770;9.188;2022-11-15T10:26:17;12.80;99.90
796;DHT22;381;48.770;9.188;2022-11-15T10:31:24;12.90;99.90
796;DHT22;381;48.770;9.188;2022-11-15T10:36:28;13.00;99.90
796;DHT22;381;48.770;9.188;2022-11-15T10:41:36;13.00;99.90
796;DHT22;381;48.770;9.188;2022-11-15T10:46:40;13.10;99.90
796;DHT22;381;48.770;9.188;2022-11-15T10:51:47;13.20;99.90
796;DHT22;381;48.770;9.188;2022-11-15T10:56:52;13.20;99.90
796;DHT22;381;48.770;9.188;2022-11-15T11:01:55;13.30;99.90
796;DHT22;381;48.770;9.188;2022-11-15T11:06:59;13.30;99.90
796;DHT22;381;48.770;9.188;2022-11-15T11:12:02;13.30;99.90
796;DHT22;381;48.770;9.188;2022-11-15T11:17:10;13.30;99.90
796;DHT22;381;48.770;9.188;2022-11-15T11:22:22;13.30;99.90
796;DHT22;381;48.770;9.188;2022-11-15T11:27:39;13.30;99.90
796;DHT22;381;48.770;9.188;2022-11-15T11:32:57;13.30;99.90
796;DHT22;381;48.770;9.188;2022-11-15T11:38:15;13.30;99.90
796;DHT22;381;48.770;9.188;2022-11-15T11:43:26;13.30;99.90
796;DHT22;381;48.770;9.188;2022-11-15T11:48:40;13.40;99.90
796;DHT22;381;48.770;9.188;2022-11-15T11:53:48;13.50;99.90
796;DHT22;381;48.770;9.188;2022-11-15T11:58:54;13.50;99.90
796;DHT22;381;48.770;9.188;2022-11-15T12:04:01;13.50;99.90
796;DHT22;381;48.770;9.188;2022-11-15T12:09:12;13.60;99.90
796;DHT22;381;48.770;9.188;2022-11-15T12:14:24;13.70;99.90
796;DHT22;381;48.770;9.188;2022-11-15T12:19:27;13.70;99.90
796;DHT22;381;48.770;9.188;2022-11-15T12:24:35;13.70;99.90
796;DHT22;381;48.770;9.188;2022-11-15T12:29:42;13.70;99.90
796;DHT22;381;48.770;9.188;2022-11-15T12:34:47;13.70;99.90
796;DHT22;381;48.770;9.188;2022-11-15T12:40:23;13.70;99.90
796;DHT22;381;48.770;9.188;2022-11-15T12:45:27;13.70;99.90
796;DHT22;381;48.770;9.188;2022-11-15T12:50:55;13.70;99.90
796;DHT22;381;48.770;9.188;2022-11-15T12:56:18;13.70;99.90
796;DHT22;381;48.770;9.188;2022-11-15T13:01:56;13.80;99.90
796;DHT22;381;48.770;9.188;2022-11-15T13:07:00;13.90;99.90
796;DHT22;381;48.770;9.188;2022-11-15T13:12:07;13.90;99.90
796;DHT22;381;48.770;9.188;2022-11-15T13:22:41;14.10;99.90
796;DHT22;381;48.770;9.188;2022-11-15T13:27:55;14.10;99.90
796;DHT22;381;48.770;9.188;2022-11-15T13:33:07;14.10;99.90
796;DHT22;381;48.770;9.188;2022-11-15T13:38:19;14.10;99.90
796;DHT22;381;48.770;9.188;2022-11-15T13:43:32;14.10;99.90
796;DHT22;381;48.770;9.188;2022-11-15T13:48:36;14.10;99.90
796;DHT22;381;48.770;9.188;2022-11-15T13:53:40;14.00;99.90
796;DHT22;381;48.770;9.188;2022-11-15T13:58:44;14.00;99.90
796;DHT22;381;48.770;9.188;2022-11-15T14:03:53;14.00;99.90
796;DHT22;381;48.770;9.188;2022-11-15T14:14:46;13.90;99.90
796;DHT22;381;48.770;9.188;2022-11-15T14:19:48;13.80;99.90
796;DHT22;381;48.770;9.188;2022-11-15T14:25:21;13.70;99.90
796;DHT22;381;48.770;9.188;2022-11-15T14:30:24;13.60;99.90
796;DHT22;381;48.770;9.188;2022-11-15T14:35:26;13.50;99.90
796;DHT22;381;48.770;9.188;2022-11-15T14:40:28;13.40;99.90
796;DHT22;381;48.770;9.188;2022-11-15T14:45:32;13.40;99.90
796;DHT22;381;48.770;9.188;2022-11-15T14:50:36;13.30;99.90
796;DHT22;381;48.770;9.188;2022-11-15T14:55:38;13.30;99.90
796;DHT22;381;48.770;9.188;2022-11-15T15:00:42;13.20;99.90
796;DHT22;381;48.770;9.188;2022-11-15T15:05:44;13.10;99.90
796;DHT22;381;48.770;9.188;2022-11-15T15:10:46;13.10;99.90
796;DHT22;381;48.770;9.188;2022-11-15T15:15:51;13.00;99.90
796;DHT22;381;48.770;9.188;2022-11-15T15:20:56;13.00;99.90
796;DHT22;381;48.770;9.188;2022-11-15T15:26:00;13.00;99.90
796;DHT22;381;48.770;9.188;2022-11-15T15:31:04;12.90;99.90
796;DHT22;381;48.770;9.188;2022-11-15T15:36:09;12.90;99.90
796;DHT22;381;48.770;9.188;2022-11-15T15:41:14;12.90;99.90
796;DHT22;381;48.770;9.188;2022-11-15T15:46:18;12.90;99.90
796;DHT22;381;48.770;9.188;2022-11-15T15:51:21;12.90;99.90
796;DHT22;381;48.770;9.188;2022-11-15T15:56:23;12.90;99.90
796;DHT22;381;48.770;9.188;2022-11-15T16:01:26;12.90;99.90
796;DHT22;381;48.770;9.188;2022-11-15T16:06:35;12.90;99.90
796;DHT22;381;48.770;9.188;2022-11-15T16:11:38;12.90;99.90
796;DHT22;381;48.770;9.188;2022-11-15T16:16:42;13.00;99.90
796;DHT22;381;48.770;9.188;2022-11-15T16:21:44;13.00;99.90
796;DHT22;381;48.770;9.188;2022-11-15T16:26:47;13.10;99.90
796;DHT22;381;48.770;9.188;2022-11-15T16:31:50;13.10;99.90
796;DHT22;381;48.770;9.188;2022-11-15T16:36:53;13.20;99.90
796;DHT22;381;48.770;9.188;2022-11-15T16:41:55;13.20;99.90
796;DHT22;381;48.770;9.188;2022-11-15T16:46:59;13.20;99.90
796;DHT22;381;48.770;9.188;2022-11-15T16:52:03;13.20;99.90
796;DHT22;381;48.770;9.188;2022-11-15T16:57:05;13.20;99.90
796;DHT22;381;48.770;9.188;2022-11-15T17:02:11;13.10;99.90
796;DHT22;381;48.770;9.188;2022-11-15T17:07:13;13.10;99.90
796;DHT22;381;48.770;9.188;2022-11-15T17:12:15;13.00;99.90
796;DHT22;381;48.770;9.188;2022-11-15T17:17:18;13.00;99.90
796;DHT22;381;48.770;9.188;2022-11-15T17:22:21;12.90;99.90
796;DHT22;381;48.770;9.188;2022-11-15T17:27:23;12.90;99.90
796;DHT22;381;48.770;9.188;2022-11-15T17:32:27;12.90;99.90
796;DHT22;381;48.770;9.188;2022-11-15T17:37:29;12.90;99.90
796;DHT22;381;48.770;9.188;2022-11-15T17:42:31;12.80;99.90
796;DHT22;381;48.770;9.188;2022-11-15T17:47:34;12.80;99.90
796;DHT22;381;48.770;9.188;2022-11-15T17:52:36;12.80;99.90
796;DHT22;381;48.770;9.188;2022-11-15T17:57:39;12.80;99.90
796;DHT22;381;48.770;9.188;2022-11-15T18:02:42;12.80;99.90
796;DHT22;381;48.770;9.188;2022-11-15T18:07:44;12.80;99.90
796;DHT22;381;48.770;9.188;2022-11-15T18:12:46;12.80;99.90
796;DHT22;381;48.770;9.188;2022-11-15T18:17:53;12.90;99.90
796;DHT22;381;48.770;9.188;2022-11-15T18:22:55;12.90;99.90
796;DHT22;381;48.770;9.188;2022-11-15T18:27:57;12.90;99.90
796;DHT22;381;48.770;9.188;2022-11-15T18:33:00;12.90;99.90
796;DHT22;381;48.770;9.188;2022-11-15T18:38:02;12.90;99.90
796;DHT22;381;48.770;9.188;2022-11-15T18:43:04;12.90;99.90
796;DHT22;381;48.770;9.188;2022-11-15T18:48:08;12.90;99.90
796;DHT22;381;48.770;9.188;2022-11-15T18:53:10;12.90;99.90
796;DHT22;381;48.770;9.188;2022-11-15T18:58:12;12.90;99.90
796;DHT22;381;48.770;9.188;2022-11-15T19:03:15;12.90;99.90
796;DHT22;381;48.770;9.188;2022-11-15T19:08:17;12.90;99.90
796;DHT22;381;48.770;9.188;2022-11-15T19:13:20;12.80;99.90
796;DHT22;381;48.770;9.188;2022-11-15T19:18:23;12.80;99.90
796;DHT22;381;48.770;9.188;2022-11-15T19:23:26;12.80;99.90
796;DHT22;381;48.770;9.188;2022-11-15T19:28:28;12.80;99.90
796;DHT22;381;48.770;9.188;2022-11-15T19:33:32;12.80;99.90
796;DHT22;381;48.770;9.188;2022-11-15T19:38:34;12.80;99.90
796;DHT22;381;48.770;9.188;2022-11-15T19:43:37;12.80;99.90
796;DHT22;381;48.770;9.188;2022-11-15T19:48:40;12.80;99.90
796;DHT22;381;48.770;9.188;2022-11-15T19:53:43;12.80;99.90
796;DHT22;381;48.770;9.188;2022-11-15T19:58:45;12.80;99.90
796;DHT22;381;48.770;9.188;2022-11-15T20:03:53;12.80;99.90
796;DHT22;381;48.770;9.188;2022-11-15T20:08:55;12.80;99.90
796;DHT22;381;48.770;9.188;2022-11-15T20:13:58;12.70;99.90
796;DHT22;381;48.770;9.188;2022-11-15T20:19:03;12.70;99.90
796;DHT22;381;48.770;9.188;2022-11-15T20:24:06;12.70;99.90
796;DHT22;381;48.770;9.188;2022-11-15T20:29:08;12.70;99.90
796;DHT22;381;48.770;9.188;2022-11-15T20:34:12;12.70;99.90
796;DHT22;381;48.770;9.188;2022-11-15T20:39:14;12.70;99.90
796;DHT22;381;48.770;9.188;2022-11-15T20:44:16;12.70;99.90
796;DHT22;381;48.770;9.188;2022-11-15T20:49:19;12.70;99.90
796;DHT22;381;48.770;9.188;2022-11-15T20:54:21;12.70;99.90
796;DHT22;381;48.770;9.188;2022-11-15T20:59:24;12.70;99.90
796;DHT22;381;48.770;9.188;2022-11-15T21:04:27;12.70;99.90
796;DHT22;381;48.770;9.188;2022-11-15T21:09:30;12.70;99.90
796;DHT22;381;48.770;9.188;2022-11-15T21:14:50;12.70;99.90
796;DHT22;381;48.770;9.188;2022-11-15T21:19:54;12.70;99.90
796;DHT22;381;48.770;9.188;2022-11-15T21:24:56;12.60;99.90
796;DHT22;381;48.770;9.188;2022-11-15T21:29:59;12.60;99.90
796;DHT22;381;48.770;9.188;2022-11-15T21:35:03;12.60;99.90
796;DHT22;381;48.770;9.188;2022-11-15T21:40:07;12.60;99.90
796;DHT22;381;48.770;9.188;2022-11-15T21:45:10;12.60;99.90
796;DHT22;381;48.770;9.188;2022-11-15T21:50:16;12.60;99.90
796;DHT22;381;48.770;9.188;2022-11-15T21:55:18;12.60;99.90
796;DHT22;381;48.770;9.188;2022-11-15T22:00:21;12.60;99.90
796;DHT22;381;48.770;9.188;2022-11-15T22:05:44;12.60;99.90
796;DHT22;381;48.770;9.188;2022-11-15T22:10:46;12.60;99.90
796;DHT22;381;48.770;9.188;2022-11-15T22:15:49;12.60;99.90
796;DHT22;381;48.770;9.188;2022-11-15T22:20:53;12.60;99.90
796;DHT22;381;48.770;9.188;2022-11-15T22:25:56;12.60;99.90
796;DHT22;381;48.770;9.188;2022-11-15T22:30:59;12.60;99.90
796;DHT22;381;48.770;9.188;2022-11-15T22:36:04;12.60;99.90
796;DHT22;381;48.770;9.188;2022-11-15T22:41:06;12.60;99.90
796;DHT22;381;48.770;9.188;2022-11-15T22:46:09;12.60;99.90
796;DHT22;381;48.770;9.188;2022-11-15T22:51:13;12.50;99.90
796;DHT22;381;48.770;9.188;2022-11-15T22:56:15;12.50;99.90
796;DHT22;381;48.770;9.188;2022-11-15T23:01:19;12.40;99.90
796;DHT22;381;48.770;9.188;2022-11-15T23:06:23;12.30;99.90
796;DHT22;381;48.770;9.188;2022-11-15T23:11:26;12.30;99.90
796;DHT22;381;48.770;9.188;2022-11-15T23:16:45;12.30;99.90
796;DHT22;381;48.770;9.188;2022-11-15T23:21:49;12.20;99.90
796;DHT22;381;48.770;9.188;2022-11-15T23:27:09;12.20;99.90
796;DHT22;381;48.770;9.188;2022-11-15T23:32:14;12.20;99.90
796;DHT22;381;48.770;9.188;2022-11-15T23:37:35;12.20;99.90
796;DHT22;381;48.770;9.188;2022-11-15T23:42:38;12.10;99.90
796;DHT22;381;48.770;9.188;2022-11-15T23:47:40;12.10;99.90
796;DHT22;381;48.770;9.188;2022-11-15T23:52:44;12.10;99.90
796;DHT22;381;48.770;9.188;2022-11-15T23:57:46;12.10;99.90
